Time;durP1;ratioP1;P1;durP2;ratioP2;P2;SDS_P1;SDS_P2;PMS_P1;PMS_P2;Temp;Humidity;BMP_temperature;BMP_pressure;BME280_temperature;BME280_humidity;BME280_pressure;Samples;Min_cycle;Max_cycle;Signal;HPM_P1;HPM_P2
2023/11/16 00:00:38;;;;;;;13.40;5.72;;;6.90;99.90;;;;;;4936073;29;20397;-92
2023/11/16 00:03:05;;;;;;;18.15;5.75;;;6.90;99.90;;;;;;4935076;29;20020;-93
2023/11/16 00:05:35;;;;;;;19.17;6.45;;;6.90;99.90;;;;;;4936843;29;20023;-92
2023/11/16 00:08:05;;;;;;;21.07;6.10;;;6.90;99.90;;;;;;4939597;29;20024;-94
2023/11/16 00:10:33;;;;;;;17.15;5.68;;;6.90;99.90;;;;;;4938219;29;20781;-93
2023/11/16 00:12:59;;;;;;;25.77;6.28;;;6.80;99.90;;;;;;4938007;29;20034;-92
2023/11/16 00:15:24;;;;;;;13.65;5.20;;;6.80;99.90;;;;;;4935993;29;20130;-92
2023/11/16 00:17:50;;;;;;;10.20;4.95;;;6.90;99.90;;;;;;4939069;29;20023;-93
2023/11/16 00:20:16;;;;;;;11.88;4.40;;;6.80;99.90;;;;;;4937967;29;20135;-94
2023/11/16 00:22:42;;;;;;;16.33;5.22;;;6.80;99.90;;;;;;4936720;29;20035;-93
2023/11/16 00:25:09;;;;;;;13.15;4.47;;;6.80;99.90;;;;;;4936416;29;20016;-93
2023/11/16 00:27:35;;;;;;;10.93;4.20;;;6.80;99.90;;;;;;4936680;29;20027;-92
2023/11/16 00:30:00;;;;;;;8.27;4.38;;;6.70;99.90;;;;;;4935190;29;20031;-93
2023/11/16 00:32:26;;;;;;;15.05;4.50;;;6.70;99.90;;;;;;4935829;29;20020;-94
2023/11/16 00:34:52;;;;;;;9.63;4.43;;;6.70;99.90;;;;;;4934364;29;20106;-93
2023/11/16 00:37:18;;;;;;;8.93;4.38;;;6.60;99.90;;;;;;4935269;29;20020;-92
2023/11/16 00:39:44;;;;;;;9.57;3.97;;;6.60;99.90;;;;;;4937370;29;20485;-93
2023/11/16 00:42:10;;;;;;;14.90;4.97;;;6.50;99.90;;;;;;4938234;29;20114;-93
2023/11/16 00:44:37;;;;;;;10.00;4.78;;;6.50;99.90;;;;;;4940567;29;20062;-93
2023/11/16 00:47:03;;;;;;;14.63;5.38;;;6.40;99.90;;;;;;4941180;29;20047;-92
2023/11/16 00:49:28;;;;;;;14.60;4.97;;;6.40;99.90;;;;;;4939810;29;20473;-92
2023/11/16 00:51:54;;;;;;;16.13;4.65;;;6.40;99.90;;;;;;4936034;29;20537;-93
2023/11/16 00:54:22;;;;;;;17.17;5.15;;;6.40;99.90;;;;;;4940592;29;20162;-93
2023/11/16 00:56:50;;;;;;;11.40;4.63;;;6.30;99.90;;;;;;4942097;29;20024;-93
2023/11/16 00:59:20;;;;;;;14.30;4.60;;;6.30;99.90;;;;;;4939852;29;20028;-91
2023/11/16 01:01:46;;;;;;;16.60;4.93;;;6.30;99.90;;;;;;4937880;29;20075;-92
2023/11/16 01:04:13;;;;;;;10.55;4.30;;;6.20;99.90;;;;;;4938182;29;20659;-92
2023/11/16 01:06:39;;;;;;;8.57;5.15;;;6.20;99.90;;;;;;4938142;29;20028;-93
2023/11/16 01:09:07;;;;;;;13.55;5.15;;;6.20;99.90;;;;;;4936343;29;20028;-93
2023/11/16 01:11:39;;;;;;;12.13;4.85;;;6.20;99.90;;;;;;4935851;29;20040;-92
2023/11/16 01:14:05;;;;;;;8.75;4.43;;;6.10;99.90;;;;;;4936768;29;20028;-92
2023/11/16 01:16:40;;;;;;;20.63;5.85;;;6.10;99.90;;;;;;4938855;29;20020;-93
2023/11/16 01:19:08;;;;;;;12.00;5.00;;;6.10;99.90;;;;;;4940231;29;20063;-92
2023/11/16 01:21:41;;;;;;;14.45;7.13;;;6.10;99.90;;;;;;4938822;29;20036;-92
2023/11/16 01:24:11;;;;;;;9.25;4.80;;;6.00;99.90;;;;;;4939242;29;20485;-92
2023/11/16 01:26:39;;;;;;;6.68;4.75;;;6.00;99.90;;;;;;4939346;29;20036;-93
2023/11/16 01:29:09;;;;;;;9.90;4.75;;;6.00;99.90;;;;;;4940309;29;20035;-91
2023/11/16 01:31:37;;;;;;;6.68;5.05;;;6.00;99.90;;;;;;4939827;29;20052;-91
2023/11/16 01:34:02;;;;;;;10.52;4.50;;;6.00;99.90;;;;;;4939096;29;20497;-93
2023/11/16 01:36:28;;;;;;;12.93;4.85;;;6.00;99.90;;;;;;4939153;29;20039;-94
2023/11/16 01:38:53;;;;;;;14.38;4.63;;;6.00;99.90;;;;;;4935140;29;20046;-90
2023/11/16 01:41:19;;;;;;;11.13;4.13;;;5.90;99.90;;;;;;4937233;29;20036;-92
2023/11/16 01:43:47;;;;;;;10.68;4.07;;;5.90;99.90;;;;;;4938641;29;20020;-91
2023/11/16 01:46:15;;;;;;;10.00;3.35;;;5.80;99.90;;;;;;4938351;29;20122;-93
2023/11/16 01:48:43;;;;;;;9.65;3.60;;;5.80;99.90;;;;;;4938249;29;20074;-92
2023/11/16 01:51:14;;;;;;;7.95;4.60;;;5.80;99.90;;;;;;4938409;29;20024;-93
2023/11/16 01:53:43;;;;;;;12.07;4.85;;;5.80;99.90;;;;;;4938450;29;20467;-94
2023/11/16 01:56:09;;;;;;;11.05;3.83;;;5.80;99.90;;;;;;4937923;29;20028;-93
2023/11/16 01:58:36;;;;;;;8.80;3.58;;;5.70;99.90;;;;;;4938111;29;20469;-92
2023/11/16 02:01:01;;;;;;;12.35;4.45;;;5.80;99.90;;;;;;4937804;29;20082;-92
2023/11/16 02:03:27;;;;;;;15.52;4.82;;;5.80;99.90;;;;;;4936577;29;20479;-93
2023/11/16 02:05:54;;;;;;;14.40;4.47;;;5.70;99.90;;;;;;4937555;29;20028;-92
2023/11/16 02:08:20;;;;;;;14.93;5.60;;;5.70;99.90;;;;;;4937839;29;20028;-92
2023/11/16 02:10:46;;;;;;;7.43;3.53;;;5.70;99.90;;;;;;4937911;29;20179;-92
2023/11/16 02:13:17;;;;;;;11.43;5.05;;;5.60;99.90;;;;;;4937933;29;20488;-92
2023/11/16 02:15:43;;;;;;;13.27;4.88;;;5.60;99.90;;;;;;4937738;29;20056;-91
2023/11/16 02:18:09;;;;;;;10.35;3.35;;;5.60;99.90;;;;;;4938438;29;20032;-94
2023/11/16 02:20:35;;;;;;;12.88;4.70;;;5.60;99.90;;;;;;4938893;29;20403;-91
2023/11/16 02:23:03;;;;;;;15.10;5.80;;;5.60;99.90;;;;;;4938496;29;20031;-93
2023/11/16 02:25:29;;;;;;;17.52;6.35;;;5.50;99.90;;;;;;4936981;29;20046;-92
2023/11/16 02:27:55;;;;;;;12.77;5.50;;;5.50;99.90;;;;;;4937433;29;20486;-92
2023/11/16 02:30:20;;;;;;;15.35;5.47;;;5.50;99.90;;;;;;4938539;29;20123;-93
2023/11/16 02:32:46;;;;;;;20.80;5.88;;;5.50;99.90;;;;;;4937506;29;20114;-92
2023/11/16 02:35:12;;;;;;;9.93;4.80;;;5.40;99.90;;;;;;4937551;29;20028;-91
2023/11/16 02:37:38;;;;;;;20.90;7.13;;;5.40;99.90;;;;;;4937646;29;20038;-93
2023/11/16 02:40:05;;;;;;;16.95;6.70;;;5.40;99.90;;;;;;4938529;29;20046;-93
2023/11/16 02:42:31;;;;;;;14.27;5.30;;;5.40;99.90;;;;;;4939274;29;20506;-93
2023/11/16 02:44:57;;;;;;;13.13;5.15;;;5.30;99.90;;;;;;4943952;29;20114;-91
2023/11/16 02:47:28;;;;;;;12.68;5.72;;;5.30;99.90;;;;;;4945982;29;20075;-91
2023/11/16 02:49:54;;;;;;;11.48;5.38;;;5.20;99.90;;;;;;4945644;29;20027;-91
2023/11/16 02:52:19;;;;;;;13.23;5.60;;;5.10;99.90;;;;;;4940760;29;20082;-94
2023/11/16 02:54:47;;;;;;;18.27;6.72;;;5.10;99.90;;;;;;4937491;29;20036;-91
2023/11/16 02:57:13;;;;;;;18.80;7.30;;;5.10;99.90;;;;;;4937260;29;20027;-93
2023/11/16 02:59:39;;;;;;;14.80;6.82;;;5.00;99.90;;;;;;4937063;29;20082;-93
2023/11/16 03:02:06;;;;;;;14.65;7.82;;;5.00;99.90;;;;;;4936375;29;20028;-93
2023/11/16 03:04:33;;;;;;;24.45;8.20;;;5.00;99.90;;;;;;4937505;29;20035;-93
2023/11/16 03:06:59;;;;;;;17.42;8.27;;;5.00;99.90;;;;;;4937834;29;20028;-94
2023/11/16 03:09:24;;;;;;;10.85;5.65;;;5.00;99.90;;;;;;4937849;29;20023;-94
2023/11/16 03:11:50;;;;;;;10.63;4.93;;;5.00;99.90;;;;;;4937891;29;20043;-93
2023/11/16 03:14:15;;;;;;;24.30;9.35;;;5.00;99.90;;;;;;4938046;29;20418;-94
2023/11/16 03:16:45;;;;;;;22.10;9.35;;;5.10;99.90;;;;;;4938503;29;20020;-93
2023/11/16 03:19:11;;;;;;;19.60;6.80;;;5.10;99.90;;;;;;4938047;29;20075;-92
2023/11/16 03:21:37;;;;;;;25.40;10.40;;;5.10;99.90;;;;;;4937452;29;20054;-94
2023/11/16 03:24:03;;;;;;;24.13;10.07;;;5.10;99.90;;;;;;4937784;29;20044;-92
2023/11/16 03:26:29;;;;;;;23.13;9.93;;;5.10;99.90;;;;;;4937571;29;20114;-94
2023/11/16 03:28:57;;;;;;;23.27;10.10;;;5.20;99.90;;;;;;4937508;29;20055;-93
2023/11/16 03:31:23;;;;;;;26.95;11.43;;;5.20;99.90;;;;;;4937466;29;20035;-94
2023/11/16 03:33:49;;;;;;;19.95;8.93;;;5.20;99.90;;;;;;4937322;29;20024;-92
2023/11/16 03:36:14;;;;;;;20.35;9.80;;;5.20;99.90;;;;;;4937081;29;20035;-93
2023/11/16 03:38:40;;;;;;;26.05;10.55;;;5.20;99.90;;;;;;4936273;29;20028;-91
2023/11/16 03:41:06;;;;;;;27.20;10.93;;;5.20;99.90;;;;;;4937246;29;20039;-91
2023/11/16 03:43:32;;;;;;;27.23;10.80;;;5.20;99.90;;;;;;4937553;29;20039;-92
2023/11/16 03:45:58;;;;;;;30.85;10.52;;;5.20;99.90;;;;;;4938206;29;20043;-92
2023/11/16 03:48:23;;;;;;;22.80;9.90;;;5.20;99.90;;;;;;4936563;29;20024;-91
2023/11/16 03:50:49;;;;;;;22.90;9.60;;;5.20;99.90;;;;;;4936763;29;20032;-91
2023/11/16 03:53:15;;;;;;;28.38;11.20;;;5.20;99.90;;;;;;4937197;29;20028;-90
2023/11/16 03:55:41;;;;;;;28.02;8.88;;;5.20;99.90;;;;;;4937103;29;20481;-90
2023/11/16 03:58:07;;;;;;;29.27;8.93;;;5.20;99.90;;;;;;4936809;29;20544;-92
2023/11/16 04:00:33;;;;;;;23.58;9.20;;;5.10;99.90;;;;;;4936613;29;20047;-90
2023/11/16 04:02:59;;;;;;;19.70;9.27;;;5.10;99.90;;;;;;4937372;29;20035;-91
2023/11/16 04:05:26;;;;;;;20.65;9.23;;;5.10;99.90;;;;;;4940128;29;20031;-90
2023/11/16 04:07:55;;;;;;;32.58;9.57;;;5.10;99.90;;;;;;4945947;29;20028;-92
2023/11/16 04:10:21;;;;;;;27.48;10.15;;;5.10;99.90;;;;;;4944497;29;20075;-90
2023/11/16 04:12:46;;;;;;;23.17;8.63;;;5.20;99.90;;;;;;4943098;29;20032;-93
2023/11/16 04:15:13;;;;;;;21.73;10.18;;;5.10;99.90;;;;;;4941588;29;20038;-92
2023/11/16 04:17:45;;;;;;;26.15;10.13;;;5.10;99.90;;;;;;4939291;29;20047;-92
2023/11/16 04:20:12;;;;;;;37.20;12.38;;;5.20;99.90;;;;;;4938668;29;20044;-90
2023/11/16 04:22:39;;;;;;;27.45;11.00;;;5.20;99.90;;;;;;4937146;29;20051;-93
2023/11/16 04:25:27;;;;;;;26.30;11.77;;;5.30;99.90;;;;;;4937646;29;20393;-92
2023/11/16 04:28:04;;;;;;;28.90;10.70;;;5.30;99.90;;;;;;4938503;29;20058;-94
2023/11/16 04:30:30;;;;;;;21.95;9.02;;;5.30;99.90;;;;;;4936606;29;20035;-93
2023/11/16 04:32:57;;;;;;;21.55;10.65;;;5.40;99.90;;;;;;4937179;29;20028;-94
2023/11/16 04:35:23;;;;;;;25.42;11.77;;;5.40;99.90;;;;;;4936626;29;20039;-93
2023/11/16 04:37:50;;;;;;;28.40;13.02;;;5.40;99.90;;;;;;4936888;29;20028;-93
2023/11/16 04:40:16;;;;;;;33.30;11.77;;;5.50;99.90;;;;;;4936330;29;20039;-93
2023/11/16 04:42:42;;;;;;;32.05;11.00;;;5.40;99.90;;;;;;4936565;29;20044;-93
2023/11/16 04:45:12;;;;;;;24.15;11.13;;;5.50;99.90;;;;;;4935980;29;20473;-92
2023/11/16 04:47:46;;;;;;;27.80;11.30;;;5.50;99.90;;;;;;4936045;29;20031;-94
2023/11/16 04:50:17;;;;;;;19.85;9.80;;;5.50;99.90;;;;;;4939195;29;20781;-94
2023/11/16 04:52:46;;;;;;;22.85;10.55;;;5.60;99.90;;;;;;4939910;29;20043;-94
2023/11/16 04:55:13;;;;;;;20.75;10.10;;;5.60;99.90;;;;;;4940125;29;20032;-92
2023/11/16 04:57:38;;;;;;;27.20;10.80;;;5.60;99.90;;;;;;4939678;29;20107;-93
2023/11/16 05:00:11;;;;;;;28.20;11.52;;;5.60;99.90;;;;;;4939468;29;20486;-91
2023/11/16 05:02:37;;;;;;;40.47;10.43;;;5.70;99.90;;;;;;4935912;29;20122;-91
2023/11/16 05:05:03;;;;;;;30.15;10.25;;;5.60;99.90;;;;;;4938998;29;20035;-92
2023/11/16 05:07:29;;;;;;;29.48;11.07;;;5.70;99.90;;;;;;4939457;29;20036;-91
2023/11/16 05:09:58;;;;;;;19.42;10.45;;;5.70;99.90;;;;;;4939278;29;20027;-91
2023/11/16 05:12:24;;;;;;;29.30;10.60;;;5.70;99.90;;;;;;4940025;29;20485;-92
2023/11/16 05:14:51;;;;;;;19.80;8.63;;;5.70;99.90;;;;;;4939054;29;20119;-92
2023/11/16 05:17:16;;;;;;;28.17;11.48;;;5.70;99.90;;;;;;4939208;29;20032;-93
2023/11/16 05:19:42;;;;;;;33.20;13.13;;;5.80;99.90;;;;;;4938584;29;20107;-93
2023/11/16 05:22:08;;;;;;;31.13;11.57;;;5.80;99.90;;;;;;4939280;29;20036;-93
2023/11/16 05:24:34;;;;;;;35.15;12.18;;;5.80;99.90;;;;;;4939258;29;20470;-92
2023/11/16 05:27:02;;;;;;;32.35;11.30;;;5.80;99.90;;;;;;4939226;29;20032;-92
2023/11/16 05:29:32;;;;;;;29.98;10.77;;;5.70;99.90;;;;;;4938987;29;20034;-92
2023/11/16 05:31:58;;;;;;;23.42;10.98;;;5.80;99.90;;;;;;4940408;29;20035;-93
2023/11/16 05:34:27;;;;;;;21.92;9.38;;;5.80;99.90;;;;;;4954731;29;20036;-93
2023/11/16 05:36:53;;;;;;;23.67;10.90;;;5.70;99.90;;;;;;4938671;29;20024;-91
2023/11/16 05:39:19;;;;;;;26.73;11.35;;;5.70;99.90;;;;;;4938594;29;20137;-91
2023/11/16 05:41:46;;;;;;;25.35;11.95;;;5.70;99.90;;;;;;4954527;28;20039;-92
2023/11/16 05:44:12;;;;;;;22.00;10.38;;;5.70;99.90;;;;;;4938801;29;20101;-92
2023/11/16 05:46:39;;;;;;;26.33;10.90;;;5.70;99.90;;;;;;4938296;29;20028;-91
2023/11/16 05:49:06;;;;;;;29.25;10.65;;;5.70;99.90;;;;;;4938519;29;20043;-92
2023/11/16 05:51:39;;;;;;;26.52;11.75;;;5.80;99.90;;;;;;4940340;29;20515;-92
2023/11/16 05:54:08;;;;;;;22.70;10.15;;;5.70;99.90;;;;;;4954251;29;20477;-91
2023/11/16 05:56:40;;;;;;;22.20;10.38;;;5.70;99.90;;;;;;4939951;29;20036;-92
2023/11/16 05:59:10;;;;;;;25.33;10.55;;;5.70;99.90;;;;;;4939426;29;20095;-92
2023/11/16 06:01:37;;;;;;;27.33;11.48;;;5.70;99.90;;;;;;4937285;29;20042;-93
2023/11/16 06:04:05;;;;;;;22.98;9.82;;;5.70;99.90;;;;;;4938259;29;20115;-91
2023/11/16 06:06:31;;;;;;;30.08;12.18;;;5.70;99.90;;;;;;4937971;29;20118;-93
2023/11/16 06:08:57;;;;;;;23.17;11.18;;;5.70;99.90;;;;;;4938406;29;20107;-92
2023/11/16 06:11:23;;;;;;;25.80;11.57;;;5.70;99.90;;;;;;4954413;28;20035;-94
2023/11/16 06:13:50;;;;;;;24.88;11.85;;;5.70;99.90;;;;;;4938058;29;20115;-93
2023/11/16 06:16:16;;;;;;;26.10;11.15;;;5.70;99.90;;;;;;4937451;29;20166;-91
2023/11/16 06:18:42;;;;;;;26.60;10.57;;;5.70;99.90;;;;;;4937426;29;20040;-92
2023/11/16 06:21:09;;;;;;;35.20;11.70;;;5.70;99.90;;;;;;4938159;29;20062;-93
2023/11/16 06:23:35;;;;;;;29.13;11.98;;;5.80;99.90;;;;;;4937787;29;20024;-92
2023/11/16 06:26:00;;;;;;;26.70;11.73;;;5.80;99.90;;;;;;4937587;29;20039;-92
2023/11/16 06:28:26;;;;;;;31.52;12.35;;;5.80;99.90;;;;;;4953601;29;20038;-94
2023/11/16 06:30:52;;;;;;;24.58;11.45;;;5.80;99.90;;;;;;4937577;29;20039;-92
2023/11/16 06:33:17;;;;;;;22.60;11.00;;;5.80;99.90;;;;;;4937730;29;20497;-93
2023/11/16 06:35:43;;;;;;;25.63;11.73;;;5.80;99.90;;;;;;4937639;29;20035;-93
2023/11/16 06:38:09;;;;;;;33.00;12.15;;;5.80;99.90;;;;;;4937940;29;20024;-92
2023/11/16 06:40:35;;;;;;;34.97;12.40;;;5.70;99.90;;;;;;4937680;29;20039;-93
2023/11/16 06:43:03;;;;;;;33.95;12.30;;;5.70;99.90;;;;;;4953732;29;20137;-93
2023/11/16 06:45:29;;;;;;;32.72;12.45;;;5.70;99.90;;;;;;4937496;29;20481;-93
2023/11/16 06:47:55;;;;;;;32.58;12.30;;;5.70;99.90;;;;;;4938624;29;20036;-96
2023/11/16 06:50:22;;;;;;;41.17;13.85;;;5.70;99.90;;;;;;4937620;29;20024;-92
2023/11/16 06:52:49;;;;;;;26.80;12.00;;;5.70;99.90;;;;;;4937301;29;20130;-93
2023/11/16 06:55:16;;;;;;;28.45;12.18;;;5.70;99.90;;;;;;4937550;29;20500;-93
2023/11/16 06:57:43;;;;;;;29.92;12.13;;;5.70;99.90;;;;;;4937521;29;20039;-94
2023/11/16 07:00:15;;;;;;;39.55;13.65;;;5.70;99.90;;;;;;4943840;29;20127;-94
2023/11/16 07:02:45;;;;;;;32.65;13.02;;;5.70;99.90;;;;;;4935334;29;20083;-91
2023/11/16 07:05:12;;;;;;;30.48;11.73;;;5.70;99.90;;;;;;4936617;29;20031;-92
2023/11/16 07:07:41;;;;;;;28.55;11.02;;;5.70;99.90;;;;;;4937499;29;20039;-93
2023/11/16 07:10:08;;;;;;;29.67;10.98;;;5.70;99.90;;;;;;4934876;29;20034;-93
2023/11/16 07:12:34;;;;;;;35.38;13.07;;;5.70;99.90;;;;;;4938786;29;20027;-93
2023/11/16 07:15:04;;;;;;;30.52;12.35;;;5.70;99.90;;;;;;4939362;29;20422;-94
2023/11/16 07:17:29;;;;;;;29.27;11.50;;;5.70;99.90;;;;;;4951749;29;20122;-91
2023/11/16 07:19:55;;;;;;;38.03;12.07;;;5.70;99.90;;;;;;4941245;29;20552;-91
2023/11/16 07:22:21;;;;;;;33.60;12.05;;;5.70;99.90;;;;;;4940028;29;20036;-91
2023/11/16 07:24:47;;;;;;;32.55;11.18;;;5.70;99.90;;;;;;4941064;29;20434;-92
2023/11/16 07:27:13;;;;;;;38.78;11.32;;;5.70;99.90;;;;;;4942371;29;20027;-92
2023/11/16 07:29:41;;;;;;;34.63;13.15;;;5.70;99.90;;;;;;4941047;29;20024;-92
2023/11/16 07:32:07;;;;;;;39.97;12.88;;;5.70;99.90;;;;;;4942024;29;20042;-91
2023/11/16 07:34:35;;;;;;;25.38;10.93;;;5.70;99.90;;;;;;4943215;29;20059;-90
2023/11/16 07:37:01;;;;;;;30.48;12.48;;;5.80;99.90;;;;;;4946194;29;20059;-92
2023/11/16 07:39:27;;;;;;;35.97;12.00;;;5.90;99.90;;;;;;4945344;29;20036;-91
2023/11/16 07:41:53;;;;;;;34.17;11.93;;;5.90;99.90;;;;;;4946306;29;20028;-92
2023/11/16 07:44:18;;;;;;;31.60;12.18;;;6.00;99.90;;;;;;4945044;29;20043;-92
2023/11/16 07:46:45;;;;;;;39.67;13.35;;;6.00;99.90;;;;;;4943877;29;20028;-93
2023/11/16 07:49:11;;;;;;;38.25;12.57;;;6.10;99.90;;;;;;4941735;29;20027;-91
2023/11/16 07:51:39;;;;;;;35.05;12.07;;;6.10;99.90;;;;;;4941645;29;20028;-93
2023/11/16 07:54:05;;;;;;;36.20;13.32;;;6.10;99.90;;;;;;4941486;29;20110;-92
2023/11/16 07:56:31;;;;;;;40.80;13.32;;;6.10;99.90;;;;;;4941438;29;20075;-93
2023/11/16 07:58:59;;;;;;;38.95;14.80;;;6.10;99.90;;;;;;4938502;29;20031;-93
2023/11/16 08:01:50;;;;;;;34.90;13.32;;;6.20;99.90;;;;;;4940523;29;20043;-92
2023/11/16 08:04:16;;;;;;;35.65;14.52;;;6.20;99.90;;;;;;4941740;29;20055;-92
2023/11/16 08:06:43;;;;;;;34.33;13.40;;;6.20;99.90;;;;;;4939951;29;20036;-90
2023/11/16 08:09:09;;;;;;;31.33;12.35;;;6.20;99.90;;;;;;4940184;29;20505;-90
2023/11/16 08:11:36;;;;;;;59.65;17.92;;;6.20;99.90;;;;;;4936950;29;20047;-91
2023/11/16 08:14:06;;;;;;;51.67;20.00;;;6.20;99.90;;;;;;4936962;29;20047;-91
2023/11/16 08:16:34;;;;;;;54.95;18.48;;;6.20;99.90;;;;;;4937077;29;20034;-91
2023/11/16 08:19:00;;;;;;;35.60;14.95;;;6.20;99.90;;;;;;4935577;29;20052;-91
2023/11/16 08:21:26;;;;;;;52.08;14.90;;;6.20;99.90;;;;;;4936879;29;20062;-91
2023/11/16 08:23:54;;;;;;;27.92;11.85;;;6.20;99.90;;;;;;4936405;29;20024;-92
2023/11/16 08:26:20;;;;;;;36.15;14.20;;;6.20;99.90;;;;;;4933955;29;20067;-92
2023/11/16 08:28:50;;;;;;;43.95;15.48;;;6.30;99.90;;;;;;4936658;29;20035;-93
2023/11/16 08:31:17;;;;;;;32.78;13.10;;;6.30;99.90;;;;;;4937793;29;20032;-92
2023/11/16 08:33:44;;;;;;;37.65;13.38;;;6.30;99.90;;;;;;4936871;29;20031;-93
2023/11/16 08:36:11;;;;;;;34.38;13.65;;;6.30;99.90;;;;;;4935991;29;20024;-93
2023/11/16 08:38:45;;;;;;;33.15;15.38;;;6.40;99.90;;;;;;4936194;29;20028;-91
2023/11/16 08:41:15;;;;;;;49.83;14.90;;;6.40;99.90;;;;;;4935700;29;20103;-91
2023/11/16 08:43:44;;;;;;;32.83;13.90;;;6.40;99.90;;;;;;4936009;29;20099;-92
2023/11/16 08:46:11;;;;;;;39.55;13.73;;;6.50;99.90;;;;;;4938407;29;20055;-92
2023/11/16 08:48:43;;;;;;;26.60;10.30;;;6.60;99.90;;;;;;4934329;29;20032;-92
2023/11/16 08:51:09;;;;;;;31.85;10.95;;;6.50;99.90;;;;;;4934851;29;20036;-92
2023/11/16 08:53:39;;;;;;;30.30;10.88;;;6.50;99.90;;;;;;4936007;29;20028;-91
2023/11/16 08:56:07;;;;;;;28.67;11.77;;;6.50;99.90;;;;;;4936189;29;20023;-91
2023/11/16 08:58:34;;;;;;;31.88;11.18;;;6.50;99.90;;;;;;4935676;29;20036;-92
2023/11/16 09:01:05;;;;;;;29.35;10.10;;;6.60;99.90;;;;;;4934469;29;20577;-92
2023/11/16 09:03:33;;;;;;;31.15;11.40;;;6.50;99.90;;;;;;4934529;29;20046;-92
2023/11/16 09:06:03;;;;;;;33.83;11.07;;;6.50;99.90;;;;;;4931481;29;20027;-91
2023/11/16 09:08:29;;;;;;;36.90;13.23;;;6.50;99.90;;;;;;4932364;29;20036;-93
2023/11/16 09:10:55;;;;;;;31.20;11.07;;;6.50;99.90;;;;;;4937604;29;20024;-92
2023/11/16 09:13:22;;;;;;;30.52;11.48;;;6.60;99.90;;;;;;4934713;29;20469;-93
2023/11/16 09:15:49;;;;;;;33.65;12.10;;;6.60;99.90;;;;;;4934787;29;20040;-93
2023/11/16 09:18:15;;;;;;;35.10;12.23;;;6.60;99.90;;;;;;4934767;29;20118;-92
2023/11/16 09:20:45;;;;;;;29.85;11.68;;;6.60;99.90;;;;;;4936474;29;20498;-92
2023/11/16 09:23:12;;;;;;;31.73;12.18;;;6.60;99.90;;;;;;4935040;29;20606;-92
2023/11/16 09:25:38;;;;;;;32.40;11.73;;;6.60;99.90;;;;;;4933775;29;20043;-93
2023/11/16 09:28:06;;;;;;;32.55;12.65;;;6.60;99.90;;;;;;4933964;29;20043;-93
2023/11/16 09:30:32;;;;;;;31.65;12.60;;;6.70;99.90;;;;;;4933232;29;20032;-93
2023/11/16 09:32:59;;;;;;;23.10;8.98;;;6.60;99.90;;;;;;4935219;29;20115;-92
2023/11/16 09:35:25;;;;;;;23.25;9.88;;;6.70;99.90;;;;;;4936872;29;20031;-96
2023/11/16 09:37:57;;;;;;;26.02;10.27;;;6.70;99.90;;;;;;4938314;29;20032;-92
2023/11/16 09:40:28;;;;;;;24.02;9.25;;;6.70;99.90;;;;;;4937991;29;20059;-93
2023/11/16 09:42:57;;;;;;;18.52;8.90;;;6.80;99.90;;;;;;4935830;29;20034;-93
2023/11/16 09:45:27;;;;;;;21.05;9.45;;;6.80;99.90;;;;;;4932723;29;20027;-93
2023/11/16 09:48:10;;;;;;;20.77;9.38;;;6.80;99.90;;;;;;4935689;29;20126;-92
2023/11/16 09:50:44;;;;;;;22.75;9.63;;;6.80;99.90;;;;;;4936395;29;20067;-93
2023/11/16 09:53:14;;;;;;;21.60;9.32;;;6.80;99.90;;;;;;4937652;29;20466;-93
2023/11/16 09:55:56;;;;;;;24.35;10.48;;;6.90;99.90;;;;;;4937575;29;20035;-92
2023/11/16 09:58:27;;;;;;;26.20;9.75;;;6.90;99.90;;;;;;4943497;29;20525;-93
2023/11/16 10:00:57;;;;;;;23.17;10.75;;;6.90;99.90;;;;;;4938201;29;20042;-91
2023/11/16 10:03:31;;;;;;;19.08;9.02;;;7.00;99.90;;;;;;4937900;29;20059;-91
2023/11/16 10:05:58;;;;;;;21.48;8.63;;;6.90;99.90;;;;;;4937077;29;20040;-91
2023/11/16 10:08:28;;;;;;;14.48;7.20;;;7.00;99.90;;;;;;4938338;29;20126;-91
2023/11/16 10:11:00;;;;;;;16.40;7.72;;;7.00;99.90;;;;;;4944441;29;20027;-91
2023/11/16 10:13:27;;;;;;;18.00;7.45;;;7.00;99.90;;;;;;4938124;29;20083;-91
2023/11/16 10:15:58;;;;;;;13.32;7.32;;;7.00;99.90;;;;;;4942499;29;20086;-92
2023/11/16 10:18:24;;;;;;;16.33;7.72;;;7.00;99.90;;;;;;4942434;29;20043;-91
2023/11/16 10:20:50;;;;;;;17.45;8.20;;;7.00;99.90;;;;;;4939878;29;20039;-91
2023/11/16 10:23:19;;;;;;;12.98;6.97;;;7.00;99.90;;;;;;4939034;29;20038;-92
2023/11/16 10:25:48;;;;;;;15.82;7.53;;;7.00;99.90;;;;;;4938452;29;20139;-92
2023/11/16 10:28:19;;;;;;;13.70;7.28;;;7.10;99.90;;;;;;4937805;29;20075;-91
2023/11/16 10:30:53;;;;;;;15.43;7.53;;;7.10;99.90;;;;;;4936454;29;20370;-92
2023/11/16 10:33:23;;;;;;;16.60;8.02;;;7.10;99.90;;;;;;4935049;29;20083;-93
2023/11/16 10:35:49;;;;;;;14.23;7.93;;;7.10;99.90;;;;;;4937264;29;20047;-91
2023/11/16 10:38:21;;;;;;;11.52;6.47;;;7.10;99.90;;;;;;4936426;29;20063;-92
2023/11/16 10:40:51;;;;;;;13.65;7.35;;;7.20;99.90;;;;;;4937951;29;20047;-93
2023/11/16 10:43:19;;;;;;;17.02;7.18;;;7.20;99.90;;;;;;4936620;29;20055;-93
2023/11/16 10:45:46;;;;;;;16.10;8.18;;;7.20;99.90;;;;;;4936780;29;20038;-90
2023/11/16 10:48:16;;;;;;;11.93;6.95;;;7.20;99.90;;;;;;4937936;29;20027;-92
2023/11/16 10:50:42;;;;;;;12.47;6.53;;;7.30;99.90;;;;;;4937791;29;20031;-91
2023/11/16 10:53:22;;;;;;;12.00;5.88;;;7.20;99.90;;;;;;4938135;29;20033;-91
2023/11/16 10:55:50;;;;;;;12.77;6.97;;;7.30;99.90;;;;;;4925368;29;20063;-90
2023/11/16 10:58:22;;;;;;;15.98;6.70;;;7.30;99.90;;;;;;4935838;29;20034;-90
2023/11/16 11:00:52;;;;;;;14.70;6.32;;;7.30;99.90;;;;;;4933000;29;20039;-90
2023/11/16 11:03:19;;;;;;;11.98;6.30;;;7.30;99.90;;;;;;4934697;29;20032;-91
2023/11/16 11:05:48;;;;;;;12.77;5.53;;;7.30;99.90;;;;;;4928287;29;20036;-91
2023/11/16 11:08:17;;;;;;;12.00;5.80;;;7.30;99.90;;;;;;4932355;29;20031;-91
2023/11/16 11:10:46;;;;;;;10.07;5.05;;;7.40;99.90;;;;;;4934997;29;20098;-91
2023/11/16 11:13:14;;;;;;;10.68;6.10;;;7.40;99.90;;;;;;4936923;29;20028;-91
2023/11/16 11:15:40;;;;;;;10.60;5.38;;;7.40;99.90;;;;;;4936571;29;20115;-91
2023/11/16 11:18:06;;;;;;;10.98;5.82;;;7.40;99.90;;;;;;4936310;29;20066;-92
2023/11/16 11:20:40;;;;;;;12.68;6.25;;;7.40;99.90;;;;;;4936524;29;20039;-92
2023/11/16 11:23:07;;;;;;;11.88;5.68;;;7.40;99.90;;;;;;4936064;29;20410;-91
2023/11/16 11:25:39;;;;;;;12.98;6.20;;;7.40;99.90;;;;;;4936918;29;20028;-92
2023/11/16 11:28:17;;;;;;;13.23;6.03;;;7.50;99.90;;;;;;4936592;29;20028;-93
2023/11/16 11:31:04;;;;;;;12.80;6.30;;;7.40;99.90;;;;;;4937434;29;20079;-91
2023/11/16 11:33:53;;;;;;;11.13;5.60;;;7.40;99.90;;;;;;4937724;29;20493;-93
2023/11/16 11:36:20;;;;;;;12.38;5.88;;;7.50;99.90;;;;;;4933699;29;20031;-91
2023/11/16 11:38:58;;;;;;;15.18;6.65;;;7.50;99.90;;;;;;4936730;29;20059;-92
2023/11/16 11:41:31;;;;;;;14.15;7.40;;;7.50;99.90;;;;;;4936988;29;20032;-92
2023/11/16 11:44:09;;;;;;;13.57;7.38;;;7.50;99.90;;;;;;4920989;29;20042;-91
2023/11/16 11:46:38;;;;;;;13.80;7.25;;;7.50;99.90;;;;;;4930924;29;20032;-91
2023/11/16 11:49:09;;;;;;;13.32;6.90;;;7.50;99.90;;;;;;4937286;29;20481;-91
2023/11/16 11:51:42;;;;;;;13.25;6.38;;;7.50;99.90;;;;;;4931410;29;20130;-91
2023/11/16 11:54:08;;;;;;;14.85;6.30;;;7.50;99.90;;;;;;4935099;29;20034;-91
2023/11/16 11:56:36;;;;;;;12.50;5.85;;;7.60;99.90;;;;;;4935091;29;20039;-91
2023/11/16 11:59:04;;;;;;;13.30;6.30;;;7.60;99.90;;;;;;4934632;29;20031;-92
2023/11/16 12:01:30;;;;;;;12.52;6.32;;;7.60;99.90;;;;;;4936781;29;20043;-92
2023/11/16 12:03:59;;;;;;;12.85;6.47;;;7.60;99.90;;;;;;4934908;29;20544;-92
2023/11/16 12:06:28;;;;;;;12.55;6.00;;;7.60;99.90;;;;;;4935890;29;20497;-91
2023/11/16 12:08:55;;;;;;;13.77;6.68;;;7.60;99.90;;;;;;4935360;29;20020;-90
2023/11/16 12:11:26;;;;;;;15.98;7.00;;;7.60;99.90;;;;;;4936240;29;20047;-91
2023/11/16 12:13:54;;;;;;;11.95;6.07;;;7.60;99.90;;;;;;4939267;29;20024;-91
2023/11/16 12:16:25;;;;;;;13.30;7.30;;;7.70;99.90;;;;;;4939012;29;20047;-91
2023/11/16 12:18:54;;;;;;;14.52;6.70;;;7.70;99.90;;;;;;4941549;29;20044;-91
2023/11/16 12:21:25;;;;;;;12.73;6.10;;;7.70;99.90;;;;;;4940311;29;20039;-93
2023/11/16 12:23:55;;;;;;;12.90;6.68;;;7.80;99.90;;;;;;4952463;29;20011;-91
2023/11/16 12:26:25;;;;;;;14.60;6.95;;;7.80;99.90;;;;;;4956818;28;20014;-91
2023/11/16 12:28:52;;;;;;;;;;;7.80;99.90;;;;;;4956530;29;20047;-92
2023/11/16 12:31:21;;;;;;;16.30;7.85;;;7.80;99.90;;;;;;4949185;29;19961;-90
2023/11/16 12:33:47;;;;;;;15.75;7.95;;;7.80;99.90;;;;;;4941840;29;20063;-90
2023/11/16 12:36:17;;;;;;;14.32;7.60;;;7.90;99.90;;;;;;4936565;29;20163;-91
2023/11/16 12:38:43;;;;;;;16.33;7.90;;;7.90;99.90;;;;;;4937442;29;20080;-91
2023/11/16 12:41:10;;;;;;;17.13;7.53;;;7.90;99.90;;;;;;4937370;29;20095;-92
2023/11/16 12:43:36;;;;;;;15.02;7.40;;;7.90;99.90;;;;;;4939437;29;20028;-92
2023/11/16 12:46:04;;;;;;;13.65;6.95;;;7.90;99.90;;;;;;4939855;29;20054;-91